createdAt,value
2019-05-13T00:00:34.036Z,8.73
2019-05-13T00:03:37.749Z,13.00
2019-05-13T00:06:51.335Z,8.97
2019-05-13T00:09:47.113Z,11.03
2019-05-13T00:12:53.790Z,8.90
2019-05-13T00:15:56.605Z,12.17
2019-05-13T00:19:00.518Z,10.77
2019-05-13T00:22:04.490Z,9.77
2019-05-13T00:25:08.567Z,14.00
2019-05-13T00:28:14.529Z,9.23
2019-05-13T00:31:17.932Z,13.93
2019-05-13T00:34:21.766Z,7.33
2019-05-13T00:37:25.601Z,12.27
2019-05-13T00:40:29.501Z,7.53
2019-05-13T00:43:33.938Z,11.30
2019-05-13T00:46:38.090Z,12.93
2019-05-13T00:49:43.736Z,12.10
2019-05-13T00:52:48.633Z,9.37
2019-05-13T00:55:53.570Z,7.50
2019-05-13T00:58:57.768Z,10.27
2019-05-13T01:02:03.559Z,12.20
2019-05-13T01:05:07.524Z,13.67
2019-05-13T01:08:11.362Z,10.57
2019-05-13T01:11:15.292Z,12.63
2019-05-13T01:14:19.184Z,13.77
2019-05-13T01:17:23.659Z,8.10
2019-05-13T01:20:27.612Z,12.60
2019-05-13T01:23:31.516Z,8.93
2019-05-13T01:26:35.416Z,9.30
2019-05-13T01:29:39.287Z,11.30
2019-05-13T01:32:44.867Z,12.10
2019-05-13T01:35:48.977Z,14.10
2019-05-13T01:38:54.061Z,7.97
2019-05-13T01:41:58.127Z,9.03
2019-05-13T01:45:04.487Z,11.73
2019-05-13T01:48:08.212Z,10.30
2019-05-13T01:51:13.685Z,16.30
2019-05-13T01:54:17.809Z,12.53
2019-05-13T01:57:23.814Z,16.93
2019-05-13T02:00:27.418Z,14.23
2019-05-13T02:03:33.654Z,14.30
2019-05-13T02:06:36.964Z,15.73
2019-05-13T02:09:40.851Z,11.37
2019-05-13T02:12:44.990Z,13.60
2019-05-13T02:15:48.827Z,10.40
2019-05-13T02:18:53.661Z,18.60
2019-05-13T02:21:57.773Z,14.17
2019-05-13T02:25:04.146Z,11.80
2019-05-13T02:28:09.894Z,11.77
2019-05-13T02:31:18.840Z,13.67
2019-05-13T02:34:18.487Z,11.17
2019-05-13T02:37:23.325Z,12.17
2019-05-13T02:40:27.437Z,15.47
2019-05-13T02:43:33.331Z,12.60
2019-05-13T02:46:37.086Z,10.07
2019-05-13T02:49:42.991Z,18.47
2019-05-13T02:52:46.625Z,14.07
2019-05-13T02:55:52.456Z,15.53
2019-05-13T02:58:56.135Z,10.47
2019-05-13T03:02:03.263Z,14.03
2019-05-13T03:05:05.831Z,11.90
2019-05-13T03:08:12.824Z,8.27
2019-05-13T03:11:15.443Z,13.10
2019-05-13T03:14:19.239Z,13.33
2019-05-13T03:17:28.501Z,9.90
2019-05-13T03:20:33.474Z,13.17
2019-05-13T03:23:37.432Z,11.13
2019-05-13T03:26:42.774Z,13.63
2019-05-13T03:29:46.797Z,11.37
2019-05-13T03:32:59.013Z,19.97
2019-05-13T03:35:56.804Z,13.43
2019-05-13T03:39:07.106Z,14.10
2019-05-13T03:42:06.742Z,14.40
2019-05-13T03:45:12.969Z,13.90
2019-05-13T03:48:19.362Z,18.40
2019-05-13T03:51:23.764Z,11.87
2019-05-13T03:54:27.813Z,13.90
2019-05-13T03:57:33.751Z,12.80
2019-05-13T04:00:37.305Z,13.17
2019-05-13T04:03:43.996Z,15.23
2019-05-13T04:06:46.894Z,14.90
2019-05-13T04:09:52.453Z,10.10
2019-05-13T04:12:56.679Z,10.83
2019-05-13T04:16:03.969Z,15.17
2019-05-13T04:19:06.691Z,17.90
2019-05-13T04:22:12.941Z,18.57
2019-05-13T04:25:16.436Z,10.87
2019-05-13T04:28:22.208Z,14.73
2019-05-13T04:31:26.199Z,11.37
2019-05-13T04:34:33.442Z,13.10
2019-05-13T04:37:35.781Z,12.80
2019-05-13T04:40:42.461Z,12.03
2019-05-13T04:43:45.328Z,14.47
2019-05-13T04:46:52.093Z,13.33
2019-05-13T04:49:55.111Z,13.17
2019-05-13T04:52:59.107Z,9.93
2019-05-13T04:56:03.581Z,9.77
2019-05-13T04:59:07.765Z,13.27
2019-05-13T05:02:40.076Z,16.00
2019-05-13T05:06:16.451Z,14.70
2019-05-13T05:10:16.912Z,10.37
2019-05-13T05:13:42.823Z,14.10
2019-05-13T05:17:17.342Z,11.10
2019-05-13T05:20:35.072Z,19.67
2019-05-13T05:24:04.280Z,11.30
2019-05-13T05:27:36.938Z,10.00
2019-05-13T05:31:15.691Z,11.27
2019-05-13T05:35:12.702Z,16.13
2019-05-13T05:38:31.678Z,7.40
2019-05-13T05:41:35.643Z,13.23
2019-05-13T05:44:42.239Z,13.07
2019-05-13T05:47:46.738Z,14.50
2019-05-13T05:50:52.506Z,7.97
2019-05-13T05:53:58.760Z,14.30
2019-05-13T05:57:04.812Z,10.30
2019-05-13T06:00:11.503Z,10.23
2019-05-13T06:03:15.052Z,10.90
2019-05-13T06:06:22.762Z,13.77
2019-05-13T06:09:26.919Z,13.77
2019-05-13T06:12:31.529Z,7.80
2019-05-13T06:15:35.564Z,12.93
2019-05-13T06:18:41.512Z,9.53
2019-05-13T06:21:45.839Z,8.67
2019-05-13T06:24:52.011Z,7.37
2019-05-13T06:27:55.421Z,6.10
2019-05-13T06:31:02.431Z,10.57
2019-05-13T06:34:05.553Z,5.70
2019-05-13T06:37:11.425Z,9.53
2019-05-13T06:40:15.431Z,6.60
2019-05-13T06:43:21.147Z,6.70
2019-05-13T06:46:25.181Z,6.03
2019-05-13T06:49:29.082Z,11.20
2019-05-13T06:52:32.994Z,8.97
2019-05-13T06:55:36.889Z,7.80
2019-05-13T06:58:41.492Z,4.63
2019-05-13T07:01:45.691Z,8.50
2019-05-13T07:04:51.648Z,6.60
2019-05-13T07:07:55.760Z,6.87
2019-05-13T07:11:16.659Z,9.40
2019-05-13T07:14:05.463Z,8.40
2019-05-13T07:17:09.330Z,8.70
2019-05-13T07:20:13.982Z,8.53
2019-05-13T07:23:18.056Z,11.97
2019-05-13T07:26:22.172Z,7.17
2019-05-13T07:29:26.037Z,8.97
2019-05-13T07:32:31.463Z,6.23
2019-05-13T07:35:38.018Z,5.63
2019-05-13T07:38:42.110Z,6.77
2019-05-13T07:41:45.985Z,8.93
2019-05-13T07:44:52.148Z,7.93
2019-05-13T07:47:55.420Z,7.27
2019-05-13T07:51:00.635Z,11.67
2019-05-13T07:54:05.096Z,8.90
2019-05-13T07:57:08.919Z,8.30
2019-05-13T08:00:12.984Z,6.17
2019-05-13T08:03:16.809Z,7.83
2019-05-13T08:06:21.951Z,8.70
2019-05-13T08:09:26.171Z,7.10
2019-05-13T08:12:31.940Z,6.83
2019-05-13T08:15:35.617Z,8.37
2019-05-13T08:18:43.680Z,6.67
2019-05-13T08:21:45.215Z,5.07
2019-05-13T08:24:51.938Z,5.47
2019-05-13T08:27:54.600Z,8.07
2019-05-13T08:30:58.471Z,7.33
2019-05-13T08:34:02.741Z,6.10
2019-05-13T08:37:06.686Z,3.83
2019-05-13T08:40:12.075Z,4.17
2019-05-13T08:43:16.301Z,8.43
2019-05-13T08:46:21.865Z,3.73
2019-05-13T08:49:25.884Z,3.80
2019-05-13T08:52:31.327Z,3.80
2019-05-13T08:55:35.423Z,4.17
2019-05-13T08:58:41.286Z,7.33
2019-05-13T09:01:45.095Z,3.80
2019-05-13T09:04:51.439Z,4.70
2019-05-13T09:07:55.930Z,5.40
2019-05-13T09:11:01.591Z,2.70
2019-05-13T09:14:05.904Z,5.23
2019-05-13T09:17:11.891Z,3.83
2019-05-13T09:20:15.623Z,2.93
2019-05-13T09:23:22.014Z,3.63
2019-05-13T09:26:25.187Z,5.50
2019-05-13T09:29:31.896Z,8.40
2019-05-13T09:32:34.814Z,4.70
2019-05-13T09:35:38.668Z,5.43
2019-05-13T09:38:42.567Z,3.97
2019-05-13T09:41:46.368Z,6.00
2019-05-13T09:44:52.593Z,3.60
2019-05-13T09:47:56.120Z,4.77
2019-05-13T09:51:02.169Z,8.40
2019-05-13T09:54:05.892Z,5.20
2019-05-13T09:57:11.916Z,4.10
2019-05-13T10:00:15.519Z,4.17
2019-05-13T10:03:25.068Z,3.43
2019-05-13T10:06:25.224Z,3.40
2019-05-13T10:09:29.055Z,1.57
2019-05-13T10:12:32.891Z,3.37
2019-05-13T10:15:37.011Z,3.97
2019-05-13T10:18:42.224Z,4.57
2019-05-13T10:21:46.604Z,6.87
2019-05-13T10:24:51.375Z,3.10
2019-05-13T10:27:55.767Z,3.00
2019-05-13T10:30:59.658Z,4.00
2019-05-13T10:34:03.634Z,4.83
2019-05-13T10:37:07.649Z,5.00
2019-05-13T10:40:13.195Z,3.90
2019-05-13T10:43:29.394Z,4.57
2019-05-13T10:46:22.902Z,2.00
2019-05-13T10:49:26.706Z,2.60
2019-05-13T10:52:32.256Z,4.27
2019-05-13T10:55:36.270Z,3.63
2019-05-13T10:58:42.616Z,7.73
2019-05-13T11:01:45.941Z,3.77
2019-05-13T11:04:51.928Z,4.10
2019-05-13T11:07:55.526Z,3.93
2019-05-13T11:11:01.983Z,6.23
2019-05-13T11:14:10.910Z,3.10
2019-05-13T11:17:13.152Z,5.47
2019-05-13T11:20:16.457Z,3.63
2019-05-13T11:23:23.204Z,2.37
2019-05-13T11:26:26.346Z,3.10
2019-05-13T11:29:32.361Z,3.93
2019-05-13T11:32:35.856Z,3.00
2019-05-13T11:35:41.465Z,1.80
2019-05-13T11:38:45.610Z,2.40
2019-05-13T11:41:49.538Z,2.87
2019-05-13T11:44:53.399Z,3.30
2019-05-13T11:47:57.329Z,7.47
2019-05-13T11:51:04.007Z,3.27
2019-05-13T11:54:06.877Z,4.93
2019-05-13T11:57:12.447Z,2.80
2019-05-13T12:00:21.799Z,3.90
2019-05-13T12:03:25.858Z,4.03
2019-05-13T12:06:30.077Z,3.33
2019-05-13T12:09:35.767Z,2.33
2019-05-13T12:12:43.363Z,6.23
2019-05-13T12:15:49.609Z,4.23
2019-05-13T12:18:52.602Z,2.80
2019-05-13T12:21:56.511Z,3.87
2019-05-13T12:25:02.058Z,2.63
2019-05-13T12:28:06.121Z,3.00
2019-05-13T12:31:12.163Z,2.80
2019-05-13T12:34:15.720Z,2.17
2019-05-13T12:37:21.984Z,4.80
2019-05-13T12:40:25.334Z,5.97
2019-05-13T12:43:31.852Z,2.70
2019-05-13T12:46:34.885Z,2.57
2019-05-13T12:49:38.808Z,5.63
2019-05-13T12:52:43.763Z,4.17
2019-05-13T12:55:52.771Z,4.67
2019-05-13T12:58:53.801Z,5.20
2019-05-13T13:01:57.741Z,2.63
2019-05-13T13:05:14.078Z,3.10
2019-05-13T13:08:28.869Z,1.83
2019-05-13T13:11:12.942Z,4.20
2019-05-13T13:14:17.122Z,3.13
2019-05-13T13:17:24.090Z,2.13
2019-05-13T13:20:27.865Z,4.97
2019-05-13T13:23:34.182Z,2.90
2019-05-13T13:26:37.478Z,2.70
2019-05-13T13:29:43.303Z,3.53
2019-05-13T13:32:47.167Z,3.10
2019-05-13T13:35:58.924Z,3.40
2019-05-13T13:38:56.732Z,3.13
2019-05-13T13:42:05.440Z,5.27
2019-05-13T13:45:06.541Z,6.03
2019-05-13T13:48:13.379Z,3.70
2019-05-13T13:51:15.997Z,1.90
2019-05-13T13:54:22.363Z,3.57
2019-05-13T13:57:26.057Z,2.23
2019-05-13T14:00:40.746Z,3.97
2019-05-13T14:03:35.662Z,1.80
2019-05-13T14:09:45.376Z,6.77
2019-05-13T14:12:49.206Z,4.07
2019-05-13T14:15:53.121Z,5.63
2019-05-13T14:18:56.943Z,3.33
2019-05-13T14:22:01.690Z,6.50
2019-05-13T14:25:06.443Z,4.00
2019-05-13T14:28:10.334Z,2.63
2019-05-13T14:31:14.243Z,3.73
2019-05-13T14:34:18.093Z,4.50
2019-05-13T14:37:22.480Z,6.53
2019-05-13T14:40:26.451Z,4.67
2019-05-13T14:43:31.798Z,2.67
2019-05-13T14:46:47.212Z,4.30
2019-05-13T14:49:42.327Z,4.53
2019-05-13T14:52:46.566Z,8.13
2019-05-13T14:55:51.755Z,3.23
2019-05-13T14:58:55.757Z,7.13
2019-05-13T15:02:01.335Z,4.67
2019-05-13T15:05:06.512Z,4.77
2019-05-13T15:08:10.403Z,3.93
2019-05-13T15:11:14.483Z,6.77
2019-05-13T15:14:18.372Z,4.10
2019-05-13T15:17:22.281Z,2.97
2019-05-13T15:20:26.427Z,3.77
2019-05-13T15:23:31.721Z,3.70
2019-05-13T15:26:35.838Z,3.80
2019-05-13T15:29:41.650Z,2.97
2019-05-13T15:32:45.279Z,4.83
2019-05-13T15:35:51.780Z,2.10
2019-05-13T15:38:54.921Z,2.30
2019-05-13T15:42:01.707Z,2.53
2019-05-13T15:45:04.877Z,5.43
2019-05-13T15:48:08.701Z,5.17
2019-05-13T15:51:12.697Z,2.93
2019-05-13T15:54:16.612Z,4.13
2019-05-13T15:57:21.328Z,3.13
2019-05-13T16:00:25.574Z,4.00
2019-05-13T16:03:29.478Z,4.20
2019-05-13T16:06:33.333Z,4.57
2019-05-13T16:09:37.181Z,7.67
2019-05-13T16:12:43.632Z,2.10
2019-05-13T16:15:47.869Z,4.03
2019-05-13T16:18:52.816Z,4.03
2019-05-13T16:21:56.630Z,3.70
2019-05-13T16:25:01.509Z,5.93
2019-05-13T16:28:06.085Z,2.53
2019-05-13T16:31:12.040Z,6.93
2019-05-13T16:34:15.655Z,3.33
2019-05-13T16:37:21.799Z,2.30
2019-05-13T16:40:25.294Z,2.77
2019-05-13T16:43:29.154Z,2.40
2019-05-13T16:46:33.068Z,3.77
2019-05-13T16:49:36.982Z,5.30
2019-05-13T16:52:41.780Z,1.63
2019-05-13T16:55:46.153Z,2.50
2019-05-13T16:58:52.132Z,3.40
2019-05-13T17:01:55.912Z,2.60
2019-05-13T17:05:01.377Z,2.67
2019-05-13T17:08:05.427Z,4.73
2019-05-13T17:11:11.710Z,5.07
2019-05-13T17:14:15.313Z,5.70
2019-05-13T17:17:19.222Z,3.30
2019-05-13T17:20:23.188Z,4.30
2019-05-13T17:23:27.227Z,4.93
2019-05-13T17:26:32.685Z,5.50
2019-05-13T17:29:36.819Z,5.67
2019-05-13T17:32:40.744Z,4.07
2019-05-13T17:35:44.719Z,3.60
2019-05-13T17:38:48.561Z,2.63
2019-05-13T17:41:52.367Z,2.53
2019-05-13T17:44:56.189Z,2.50
2019-05-13T17:48:01.128Z,4.07
2019-05-13T17:51:05.018Z,3.47
2019-05-13T17:54:08.859Z,2.43
2019-05-13T17:57:12.670Z,2.30
2019-05-13T18:00:16.648Z,4.20
2019-05-13T18:03:20.540Z,4.90
2019-05-13T18:06:24.456Z,5.57
2019-05-13T18:09:28.351Z,2.23
2019-05-13T18:12:32.252Z,4.27
2019-05-13T18:15:36.077Z,4.87
2019-05-13T18:18:46.327Z,3.23
2019-05-13T18:21:45.585Z,4.83
2019-05-13T18:24:51.750Z,4.80
2019-05-13T18:27:55.145Z,6.53
2019-05-13T18:30:58.956Z,1.60
2019-05-13T18:34:02.856Z,3.17
2019-05-13T18:37:06.669Z,3.03
2019-05-13T18:40:11.632Z,2.87
2019-05-13T18:43:15.703Z,1.93
2019-05-13T18:46:21.732Z,3.63
2019-05-13T18:49:25.233Z,3.27
2019-05-13T18:52:31.177Z,2.20
2019-05-13T18:55:34.747Z,3.90
2019-05-13T18:58:38.634Z,2.00
2019-05-13T19:01:42.538Z,3.23
2019-05-13T19:04:46.415Z,2.83
2019-05-13T19:07:51.282Z,4.63
2019-05-13T19:10:55.365Z,1.53
2019-05-13T19:13:59.284Z,3.87
2019-05-13T19:17:03.241Z,1.83
2019-05-13T19:20:07.519Z,3.27
2019-05-13T19:23:11.917Z,2.63
2019-05-13T19:26:15.853Z,1.97
2019-05-13T19:29:21.841Z,2.40
2019-05-13T19:32:25.295Z,1.93
2019-05-13T19:35:29.203Z,3.97
2019-05-13T19:38:33.117Z,2.77
2019-05-13T19:41:36.993Z,1.83
2019-05-13T19:44:42.034Z,7.60
2019-05-13T19:47:46.095Z,1.90
2019-05-13T19:50:52.048Z,4.50
2019-05-13T19:53:55.528Z,4.87
2019-05-13T19:57:01.423Z,2.70
2019-05-13T20:00:09.764Z,1.90
2019-05-13T20:03:11.855Z,5.43
2019-05-13T20:06:15.854Z,2.00
2019-05-13T20:09:21.560Z,5.33
2019-05-13T20:12:25.504Z,3.27
2019-05-13T20:15:41.331Z,3.90
2019-05-13T20:18:47.035Z,3.67
2019-05-13T20:21:51.840Z,6.67
2019-05-13T20:24:55.846Z,4.77
2019-05-13T20:28:03.874Z,5.83
2019-05-13T20:31:08.350Z,5.43
2019-05-13T20:34:12.304Z,5.13
2019-05-13T20:37:16.324Z,3.27
2019-05-13T20:40:22.139Z,2.07
2019-05-13T20:43:27.570Z,3.17
2019-05-13T20:46:33.084Z,2.57
2019-05-13T20:49:37.724Z,3.47
2019-05-13T20:52:42.111Z,4.67
2019-05-13T20:55:47.106Z,3.47
2019-05-13T20:58:51.674Z,4.60
2019-05-13T21:01:55.996Z,3.27
2019-05-13T21:05:02.804Z,4.53
2019-05-13T21:08:06.540Z,5.40
2019-05-13T21:11:11.572Z,6.53
2019-05-13T21:14:15.571Z,7.60
2019-05-13T21:17:21.407Z,3.50
2019-05-13T21:20:26.240Z,5.30
2019-05-13T21:23:31.386Z,6.33
2019-05-13T21:26:36.325Z,3.37
2019-05-13T21:29:41.354Z,4.27
2019-05-13T21:32:46.190Z,4.83
2019-05-13T21:35:51.269Z,2.47
2019-05-13T21:38:55.937Z,2.10
2019-05-13T21:42:02.147Z,4.43
2019-05-13T21:45:06.765Z,4.90
2019-05-13T21:48:11.216Z,3.67
2019-05-13T21:51:15.856Z,4.77
2019-05-13T21:54:20.396Z,6.23
2019-05-13T21:57:24.211Z,4.23
2019-05-13T22:00:33.456Z,2.60
2019-05-13T22:03:37.794Z,3.83
2019-05-13T22:06:42.206Z,5.03
2019-05-13T22:09:46.719Z,4.60
2019-05-13T22:12:52.051Z,6.70
2019-05-13T22:15:56.716Z,2.13
2019-05-13T22:19:01.526Z,3.47
2019-05-13T22:22:05.584Z,5.70
2019-05-13T22:25:12.155Z,5.80
2019-05-13T22:28:16.252Z,3.97
2019-05-13T22:31:22.055Z,5.43
2019-05-13T22:34:25.614Z,6.40
2019-05-13T22:37:31.326Z,6.37
2019-05-13T22:40:35.299Z,3.70
2019-05-13T22:43:52.321Z,4.67
2019-05-13T22:46:44.724Z,3.93
2019-05-13T22:49:48.543Z,5.97
2019-05-13T22:52:52.440Z,8.30
2019-05-13T22:55:56.322Z,2.57
2019-05-13T22:59:02.114Z,4.20
2019-05-13T23:02:05.846Z,5.03
2019-05-13T23:05:11.283Z,4.37
2019-05-13T23:08:15.314Z,9.67
2019-05-13T23:11:19.127Z,9.53
2019-05-13T23:14:23.006Z,10.53
2019-05-13T23:17:26.856Z,7.97
2019-05-13T23:20:31.772Z,5.47
2019-05-13T23:23:35.948Z,3.00
2019-05-13T23:26:42.031Z,5.97
2019-05-13T23:29:47.173Z,5.97
2019-05-13T23:32:51.808Z,8.00
2019-05-13T23:35:55.916Z,4.70
2019-05-13T23:39:01.075Z,5.13
2019-05-13T23:42:05.036Z,7.33
2019-05-13T23:45:11.283Z,5.13
2019-05-13T23:48:14.574Z,4.67
2019-05-13T23:51:18.471Z,3.70
2019-05-13T23:54:22.312Z,9.10
2019-05-13T23:57:26.271Z,6.23
